Time;durP1;ratioP1;P1;durP2;ratioP2;P2;SDS_P1;SDS_P2;PMS_P1;PMS_P2;Temp;Humidity;BMP_temperature;BMP_pressure;BME280_temperature;BME280_humidity;BME280_pressure;Samples;Min_cycle;Max_cycle;Signal;HPM_P1;HPM_P2
2022/10/13 00:00:40;;;;;;;16.85;9.88;;;;;;;15.88;64.64;101941.09;6241591;22;20544;-72
2022/10/13 00:03:06;;;;;;;20.38;11.20;;;;;;;15.60;66.63;101950.50;6246255;22;20042;-72
2022/10/13 00:05:32;;;;;;;22.20;11.23;;;;;;;15.67;66.43;101942.69;6242248;22;20007;-72
2022/10/13 00:07:58;;;;;;;23.85;10.98;;;;;;;15.72;66.21;101940.09;6249109;22;20402;-73
2022/10/13 00:10:24;;;;;;;21.30;10.63;;;;;;;15.81;65.71;101942.78;6247787;22;20004;-74
2022/10/13 00:12:50;;;;;;;23.10;11.15;;;;;;;15.79;66.12;101934.91;6243600;22;20007;-73
2022/10/13 00:15:15;;;;;;;21.55;10.80;;;;;;;15.85;65.71;101943.72;6247377;22;20161;-72
2022/10/13 00:17:40;;;;;;;19.25;10.93;;;;;;;15.77;66.46;101936.63;6241385;22;20855;-72
2022/10/13 00:20:08;;;;;;;21.58;11.15;;;;;;;15.86;66.43;101941.06;6246223;22;20014;-73
2022/10/13 00:22:33;;;;;;;23.88;11.70;;;;;;;15.79;66.71;101934.91;6247376;22;20008;-73
2022/10/13 00:24:59;;;;;;;23.50;11.52;;;;;;;15.81;66.88;101930.53;6216649;22;20012;-73
2022/10/13 00:27:24;;;;;;;22.27;10.80;;;;;;;15.89;66.54;101933.22;6245059;22;20226;-73
2022/10/13 00:29:49;;;;;;;20.25;11.30;;;;;;;15.82;67.05;101927.03;6217449;22;20478;-74
2022/10/13 00:32:15;;;;;;;22.90;12.05;;;;;;;15.92;66.78;101929.75;6247232;22;20010;-73
2022/10/13 00:34:41;;;;;;;20.20;11.75;;;;;;;15.89;67.13;101924.44;6249968;22;20007;-73
2022/10/13 00:37:07;;;;;;;21.77;12.07;;;;;;;15.90;67.29;101936.75;6245228;22;20907;-72
2022/10/13 00:39:32;;;;;;;24.45;11.50;;;;;;;15.92;67.39;101927.97;6245285;22;19999;-72
2022/10/13 00:41:59;;;;;;;21.77;11.57;;;;;;;15.95;67.15;101938.53;6244765;22;20011;-72
2022/10/13 00:44:52;;;;;;;20.65;11.93;;;;;;;15.98;67.36;101935.06;6250801;22;20004;-73
2022/10/13 00:47:18;;;;;;;22.08;11.85;;;;;;;16.02;67.36;101934.22;6246890;22;20135;-73
2022/10/13 00:49:44;;;;;;;20.95;12.85;;;;;;;15.89;68.08;101935.84;6240310;22;20012;-73
2022/10/13 00:52:10;;;;;;;23.73;13.05;;;;;;;15.87;68.34;101941.97;6245748;22;20011;-73
2022/10/13 00:54:35;;;;;;;21.75;11.63;;;;;;;16.04;67.53;101937.75;6243815;22;20079;-74
2022/10/13 00:57:02;;;;;;;23.10;12.18;;;;;;;16.02;67.67;101940.34;6215918;22;20007;-71
2022/10/13 00:59:28;;;;;;;24.58;12.50;;;;;;;16.03;67.36;101938.59;6239215;22;20083;-73
2022/10/13 01:01:56;;;;;;;22.17;12.52;;;;;;;16.01;67.96;101929.81;6221528;22;20082;-73
2022/10/13 01:04:25;;;;;;;26.00;12.45;;;;;;;15.92;68.35;101927.97;6251958;22;20347;-72
2022/10/13 01:06:52;;;;;;;27.48;13.05;;;;;;;15.99;68.34;101923.66;6245812;22;20310;-74
2022/10/13 01:09:17;;;;;;;19.88;12.57;;;;;;;16.00;68.54;101923.66;6249030;22;20053;-72
2022/10/13 01:12:01;;;;;;;24.33;12.57;;;;;;;16.01;68.65;101924.56;6214259;22;20015;-73
2022/10/13 01:14:43;;;;;;;25.23;12.15;;;;;;;16.07;68.24;101925.47;6223503;22;20521;-73
2022/10/13 01:17:46;;;;;;;20.23;11.43;;;;;;;16.14;68.05;101914.13;6246430;22;20015;-72
2022/10/13 01:20:36;;;;;;;24.17;12.75;;;;;;;16.11;68.13;101910.59;6220140;22;20347;-71
2022/10/13 01:23:36;;;;;;;23.98;12.45;;;;;;;16.09;68.34;101912.34;6251717;22;20014;-72
2022/10/13 01:26:34;;;;;;;22.38;11.95;;;;;;;15.96;69.62;101918.38;6251175;22;20031;-72
2022/10/13 01:29:39;;;;;;;22.70;12.82;;;;;;;16.00;69.80;101922.78;6251573;22;20018;-71
2022/10/13 01:32:12;;;;;;;19.17;11.35;;;;;;;16.05;69.52;101924.56;6222519;22;20012;-71
2022/10/13 01:34:54;;;;;;;21.95;12.07;;;;;;;16.08;69.11;101929.00;6248111;22;20062;-71
2022/10/13 01:37:48;;;;;;;23.83;12.70;;;;;;;16.06;69.54;101933.34;6216431;22;20012;-72
2022/10/13 01:40:31;;;;;;;21.42;13.10;;;;;;;16.07;69.78;101919.34;6247293;22;20008;-71
2022/10/13 01:42:57;;;;;;;23.35;11.77;;;;;;;16.10;69.27;101909.69;6217700;22;20411;-72
2022/10/13 01:45:28;;;;;;;25.63;13.40;;;;;;;16.06;69.85;101917.56;6245133;22;20083;-72
2022/10/13 01:47:56;;;;;;;27.00;13.93;;;;;;;16.08;70.28;101918.47;6242983;22;20355;-72
2022/10/13 01:50:22;;;;;;;26.10;12.82;;;;;;;16.18;69.84;101904.50;6249183;22;20065;-72
2022/10/13 01:52:49;;;;;;;25.70;13.18;;;;;;;16.19;69.53;101898.38;6252292;22;20008;-72
2022/10/13 01:55:14;;;;;;;25.75;13.10;;;;;;;16.20;69.64;101865.94;6246818;22;20011;-71
2022/10/13 01:57:43;;;;;;;33.33;14.88;;;;;;;15.88;71.62;101888.50;6244540;22;20289;-71
2022/10/13 02:00:14;;;;;;;24.40;13.38;;;;;;;16.06;71.12;101904.41;6243445;22;20311;-72
2022/10/13 02:02:58;;;;;;;25.02;13.52;;;;;;;16.21;70.26;101887.00;6248849;22;20039;-72
2022/10/13 02:05:39;;;;;;;20.92;12.48;;;;;;;16.16;70.59;101872.91;6212836;22;20007;-72
2022/10/13 02:08:10;;;;;;;27.83;13.30;;;;;;;16.18;70.47;101855.41;6251001;22;20440;-71
2022/10/13 02:10:50;;;;;;;23.30;13.23;;;;;;;16.13;70.84;101859.75;6249079;22;20345;-72
2022/10/13 02:13:20;;;;;;;29.17;13.50;;;;;;;16.14;71.06;101861.53;6243613;22;20022;-71
2022/10/13 02:15:50;;;;;;;23.20;12.95;;;;;;;16.15;70.77;101865.91;6249461;22;20471;-71
2022/10/13 02:18:20;;;;;;;24.42;14.30;;;;;;;16.13;71.19;101862.38;6245513;22;20291;-71
2022/10/13 02:20:46;;;;;;;25.45;13.93;;;;;;;16.16;71.33;101870.28;6248034;22;20027;-71
2022/10/13 02:23:15;;;;;;;26.95;14.60;;;;;;;16.17;71.41;101861.53;6250366;22;20119;-71
2022/10/13 02:25:41;;;;;;;28.02;14.68;;;;;;;16.16;71.73;101865.03;6241183;22;20011;-72
2022/10/13 02:28:08;;;;;;;29.45;15.52;;;;;;;16.14;72.03;101855.38;6248376;22;20030;-71
2022/10/13 02:30:33;;;;;;;23.52;13.90;;;;;;;16.25;71.63;101851.06;6240436;22;20469;-72
2022/10/13 02:33:00;;;;;;;26.08;14.57;;;;;;;16.24;71.95;101851.91;6244735;22;20470;-72
2022/10/13 02:35:25;;;;;;;25.45;14.85;;;;;;;16.29;71.36;101852.81;6238947;22;20008;-71
2022/10/13 02:37:51;;;;;;;29.52;15.18;;;;;;;16.27;71.57;101845.81;6245875;22;20058;-72
2022/10/13 02:40:17;;;;;;;32.13;15.63;;;;;;;16.16;72.40;101843.97;6220550;22;20004;-71
2022/10/13 02:42:42;;;;;;;29.20;15.32;;;;;;;16.24;72.26;101847.53;6245717;22;20015;-72
2022/10/13 02:45:08;;;;;;;30.80;15.32;;;;;;;16.24;72.18;101847.53;6246225;22;20478;-72
2022/10/13 02:47:34;;;;;;;27.63;15.27;;;;;;;16.27;71.96;101846.69;6241594;22;20007;-72
2022/10/13 02:49:59;;;;;;;29.70;15.07;;;;;;;16.27;72.35;101848.44;6248602;22;20650;-72
2022/10/13 02:52:24;;;;;;;32.13;15.80;;;;;;;16.20;72.49;101843.16;6250022;22;20035;-72
2022/10/13 02:54:51;;;;;;;31.02;16.17;;;;;;;16.22;72.59;101845.78;6217905;22;20069;-72
2022/10/13 02:57:17;;;;;;;29.35;15.82;;;;;;;16.28;72.73;101848.47;6249472;22;20003;-72
2022/10/13 02:59:42;;;;;;;29.20;15.45;;;;;;;16.35;72.34;101847.59;6240456;22;20455;-71
2022/10/13 03:02:08;;;;;;;31.17;16.13;;;;;;;16.37;72.66;101842.34;6249471;22;20007;-72
2022/10/13 03:04:33;;;;;;;29.05;15.30;;;;;;;16.40;72.39;101838.00;6246876;22;20007;-72
2022/10/13 03:06:58;;;;;;;28.02;15.40;;;;;;;16.43;72.08;101834.47;6242951;22;20082;-72
2022/10/13 03:09:24;;;;;;;27.58;14.55;;;;;;;16.49;71.79;101829.25;6243307;22;20082;-72
2022/10/13 03:11:49;;;;;;;29.13;14.25;;;;;;;16.46;72.17;101822.22;6239655;22;20146;-72
2022/10/13 03:14:14;;;;;;;27.92;14.98;;;;;;;16.46;71.91;101819.59;6246800;22;20409;-72
2022/10/13 03:16:40;;;;;;;24.42;13.40;;;;;;;16.45;71.86;101820.47;6244445;22;20343;-71
2022/10/13 03:19:05;;;;;;;26.75;13.57;;;;;;;16.43;71.98;101819.56;6242041;22;20012;-71
2022/10/13 03:21:30;;;;;;;31.23;14.60;;;;;;;16.40;71.96;101813.41;6244390;22;20081;-72
2022/10/13 03:23:56;;;;;;;24.15;13.38;;;;;;;16.39;72.24;101811.66;6243198;22;20019;-72
2022/10/13 03:26:21;;;;;;;25.45;13.15;;;;;;;16.31;72.69;101808.97;6245082;22;20004;-72
2022/10/13 03:28:50;;;;;;;27.45;13.30;;;;;;;16.41;72.31;101809.88;6246845;22;20014;-71
2022/10/13 03:31:16;;;;;;;26.90;13.77;;;;;;;16.36;72.39;101801.97;6243441;22;20008;-71
2022/10/13 03:33:42;;;;;;;26.08;13.02;;;;;;;16.42;72.59;101796.75;6247750;22;20328;-72
2022/10/13 03:36:10;;;;;;;33.63;14.25;;;;;;;16.48;72.10;101796.78;6245235;22;20526;-72
2022/10/13 03:38:35;;;;;;;24.35;12.95;;;;;;;16.48;72.03;101803.78;6247625;22;20884;-72
2022/10/13 03:41:13;;;;;;;26.98;13.18;;;;;;;16.47;72.07;101799.38;6243460;22;20069;-72
2022/10/13 03:43:39;;;;;;;24.48;13.05;;;;;;;16.45;71.94;101780.97;6238973;22;20806;-71
2022/10/13 03:46:05;;;;;;;21.70;12.85;;;;;;;16.55;71.29;101763.44;6220236;22;20459;-72
2022/10/13 03:48:32;;;;;;;23.45;13.55;;;;;;;16.51;71.29;101766.97;6244073;22;20008;-72
2022/10/13 03:50:57;;;;;;;20.90;12.80;;;;;;;16.39;71.85;101794.13;6246695;22;20007;-72
2022/10/13 03:53:23;;;;;;;26.80;13.15;;;;;;;16.42;71.60;101795.88;6239856;22;20014;-74
2022/10/13 03:55:50;;;;;;;25.00;12.80;;;;;;;16.39;72.29;101795.88;6244448;22;20015;-71
2022/10/13 03:58:17;;;;;;;27.15;13.45;;;;;;;16.38;72.07;101802.00;6245453;22;20008;-73
2022/10/13 04:00:42;;;;;;;28.77;13.10;;;;;;;16.36;72.18;101801.09;6239800;22;20008;-72
2022/10/13 04:03:07;;;;;;;27.10;13.00;;;;;;;16.39;72.28;101795.88;6246937;22;20023;-71
2022/10/13 04:05:33;;;;;;;27.77;13.52;;;;;;;16.46;71.88;101805.56;6238344;22;20420;-71
2022/10/13 04:07:59;;;;;;;28.45;13.95;;;;;;;16.36;72.58;101806.38;6247169;22;20084;-72
2022/10/13 04:10:24;;;;;;;32.47;14.90;;;;;;;16.39;72.48;101811.66;6217408;22;20012;-72
2022/10/13 04:12:50;;;;;;;28.95;13.82;;;;;;;16.45;72.46;101806.41;6244080;22;20014;-72
2022/10/13 04:15:15;;;;;;;29.83;14.07;;;;;;;16.44;72.74;101804.66;6248439;22;20004;-72
2022/10/13 04:17:40;;;;;;;28.50;13.85;;;;;;;16.49;72.63;101803.78;6241105;22;20008;-72
2022/10/13 04:20:06;;;;;;;26.27;13.65;;;;;;;16.46;72.86;101801.16;6247320;22;20365;-72
2022/10/13 04:22:32;;;;;;;26.00;13.38;;;;;;;16.49;73.05;101802.91;6251240;22;20281;-73
2022/10/13 04:24:57;;;;;;;29.40;13.07;;;;;;;16.46;73.07;101803.81;6245532;22;20212;-72
2022/10/13 04:27:22;;;;;;;26.13;13.88;;;;;;;16.52;72.55;101793.28;6244664;22;20499;-72
2022/10/13 04:29:48;;;;;;;32.30;14.85;;;;;;;16.44;72.94;101799.38;6241076;22;20038;-72
2022/10/13 04:32:13;;;;;;;28.02;14.82;;;;;;;16.54;72.68;101793.28;6253651;22;20008;-72
2022/10/13 04:34:39;;;;;;;32.90;14.88;;;;;;;16.38;73.13;101792.34;6250846;22;20004;-71
2022/10/13 04:37:04;;;;;;;32.05;14.85;;;;;;;16.44;73.34;101792.38;6244793;22;20014;-71
2022/10/13 04:39:29;;;;;;;35.17;15.02;;;;;;;16.28;73.56;101790.56;6245231;22;20006;-70
2022/10/13 04:41:55;;;;;;;32.13;14.68;;;;;;;16.53;72.96;101784.50;6244627;22;20012;-70
2022/10/13 04:44:20;;;;;;;31.48;14.85;;;;;;;16.44;73.41;101784.47;6248174;22;20086;-71
2022/10/13 04:46:46;;;;;;;32.80;15.80;;;;;;;16.28;74.20;101781.78;6248089;22;20369;-72
2022/10/13 04:49:11;;;;;;;28.15;14.30;;;;;;;16.45;73.61;101783.63;6244360;22;20636;-71
2022/10/13 04:51:37;;;;;;;30.30;14.65;;;;;;;16.48;73.44;101791.50;6239928;22;20399;-71
2022/10/13 04:54:04;;;;;;;29.95;14.77;;;;;;;16.56;73.01;101789.78;6244615;22;20185;-71
2022/10/13 04:56:32;;;;;;;35.15;15.02;;;;;;;16.56;72.82;101787.16;6250152;22;20424;-71
2022/10/13 04:58:58;;;;;;;25.83;14.18;;;;;;;16.61;72.69;101788.06;6249805;22;20008;-72
2022/10/13 05:01:25;;;;;;;29.20;14.63;;;;;;;16.52;73.14;101787.16;6235299;22;20014;-72
2022/10/13 05:03:53;;;;;;;38.10;15.27;;;;;;;16.48;73.25;101788.00;6249626;22;20061;-71
2022/10/13 05:06:22;;;;;;;33.75;15.20;;;;;;;16.45;73.44;101795.88;6242354;22;20008;-71
2022/10/13 05:08:49;;;;;;;29.58;14.52;;;;;;;16.51;73.16;101781.00;6250114;22;20007;-71
2022/10/13 05:11:16;;;;;;;25.73;13.68;;;;;;;16.57;73.10;101791.56;6245232;22;20339;-71
2022/10/13 05:13:41;;;;;;;28.95;14.75;;;;;;;16.57;72.94;101790.66;6240569;22;20016;-72
2022/10/13 05:16:09;;;;;;;32.47;15.10;;;;;;;16.52;73.39;101781.88;6251005;22;20004;-72
2022/10/13 05:18:35;;;;;;;29.42;14.68;;;;;;;16.53;73.33;101783.63;6245480;22;20019;-71
2022/10/13 05:21:17;;;;;;;28.15;13.60;;;;;;;16.61;73.14;101789.84;6248296;22;20556;-72
2022/10/13 05:23:42;;;;;;;34.80;14.90;;;;;;;16.47;73.60;101784.47;6243021;22;20494;-71
2022/10/13 05:26:13;;;;;;;30.13;14.23;;;;;;;16.50;73.46;101788.88;6251738;22;20082;-71
2022/10/13 05:28:39;;;;;;;27.70;14.35;;;;;;;16.62;73.21;101786.31;6248877;22;20003;-72
2022/10/13 05:31:17;;;;;;;30.00;14.02;;;;;;;16.63;73.43;101782.81;6243340;22;20011;-71
2022/10/13 05:33:44;;;;;;;34.95;14.48;;;;;;;16.53;73.80;101779.22;6250872;22;20082;-71
2022/10/13 05:36:15;;;;;;;31.95;14.52;;;;;;;16.50;74.07;101781.00;6248080;22;20004;-72
2022/10/13 05:38:41;;;;;;;30.08;14.27;;;;;;;16.50;73.80;101781.88;6222765;22;20487;-73
2022/10/13 05:41:10;;;;;;;27.58;13.43;;;;;;;16.52;73.94;101782.78;6248701;22;20008;-71
2022/10/13 05:43:36;;;;;;;34.33;14.40;;;;;;;16.60;73.82;101781.06;6241758;22;20015;-70
2022/10/13 05:46:02;;;;;;;27.88;12.63;;;;;;;16.65;73.64;101767.03;6246350;22;20012;-72
2022/10/13 05:48:29;;;;;;;33.67;14.15;;;;;;;16.67;73.68;101767.91;6241618;22;20023;-70
2022/10/13 05:50:58;;;;;;;30.25;14.38;;;;;;;16.70;73.43;101760.03;6245148;22;20004;-72
2022/10/13 05:53:26;;;;;;;30.90;13.70;;;;;;;16.74;73.62;101757.41;6236935;22;20008;-71
2022/10/13 05:55:54;;;;;;;32.70;13.90;;;;;;;16.73;73.52;101744.22;6250434;22;20027;-70
2022/10/13 05:58:20;;;;;;;29.52;13.57;;;;;;;16.78;72.94;101740.72;6220626;22;20023;-70
2022/10/13 06:00:45;;;;;;;30.83;13.57;;;;;;;16.75;73.15;101737.22;6240125;22;20318;-72
2022/10/13 06:03:22;;;;;;;27.35;13.50;;;;;;;16.78;73.01;101731.94;6218108;22;20422;-70
2022/10/13 06:05:47;;;;;;;34.28;14.77;;;;;;;16.50;74.14;101726.59;6217203;22;20072;-70
2022/10/13 06:08:14;;;;;;;32.60;14.25;;;;;;;16.56;74.35;101737.13;6248388;22;20289;-71
2022/10/13 06:10:41;;;;;;;27.65;14.70;;;;;;;16.64;73.73;101731.94;6247129;22;20008;-71
2022/10/13 06:13:07;;;;;;;26.63;13.57;;;;;;;16.74;73.51;101736.34;6244846;22;20022;-72
2022/10/13 06:15:33;;;;;;;29.55;14.25;;;;;;;16.65;73.67;101744.19;6243982;22;20014;-71
2022/10/13 06:17:58;;;;;;;30.70;13.63;;;;;;;16.73;73.40;101750.38;6243909;22;20011;-71
2022/10/13 06:20:25;;;;;;;30.23;13.57;;;;;;;16.74;73.54;101756.50;6218804;22;20007;-72
2022/10/13 06:22:50;;;;;;;29.90;14.15;;;;;;;16.74;73.60;101765.28;6220012;22;20023;-71
2022/10/13 06:25:16;;;;;;;34.15;14.55;;;;;;;16.72;74.23;101756.50;6244377;22;20012;-71
2022/10/13 06:27:42;;;;;;;34.58;15.15;;;;;;;16.72;74.30;101763.53;6246566;22;20004;-72
2022/10/13 06:30:09;;;;;;;36.00;15.35;;;;;;;16.81;73.92;101763.56;6213622;22;20031;-72
2022/10/13 06:32:34;;;;;;;31.83;15.43;;;;;;;16.89;73.74;101767.09;6201214;22;20077;-70
2022/10/13 06:35:00;;;;;;;30.23;13.75;;;;;;;16.93;73.83;101761.81;6247051;22;20015;-72
2022/10/13 06:37:25;;;;;;;39.63;18.13;;;;;;;16.74;74.64;101764.41;6213286;22;20293;-71
2022/10/13 06:39:51;;;;;;;42.58;17.60;;;;;;;16.83;74.48;101770.56;6244489;22;20391;-71
2022/10/13 06:42:17;;;;;;;30.83;15.43;;;;;;;16.92;73.94;101762.69;6216932;22;20054;-71
2022/10/13 06:44:42;;;;;;;33.40;15.63;;;;;;;16.92;73.83;101767.09;6249416;22;20004;-72
2022/10/13 06:47:08;;;;;;;33.10;15.63;;;;;;;16.90;74.08;101761.81;6221178;22;20027;-71
2022/10/13 06:49:33;;;;;;;36.13;16.02;;;;;;;16.94;73.92;101762.72;6237137;22;20242;-71
2022/10/13 06:51:59;;;;;;;32.85;15.60;;;;;;;16.98;73.89;101767.97;6249060;22;20031;-70
2022/10/13 06:54:24;;;;;;;34.55;15.93;;;;;;;17.07;73.93;101761.84;6241946;22;20325;-72
2022/10/13 06:56:50;;;;;;;36.05;16.23;;;;;;;16.95;74.14;101762.72;6250158;22;20063;-72
2022/10/13 06:59:15;;;;;;;28.00;15.38;;;;;;;17.14;73.84;101766.22;6242300;22;20008;-70
2022/10/13 07:01:41;;;;;;;33.42;15.32;;;;;;;17.15;73.61;101761.81;6211354;22;20503;-71
2022/10/13 07:04:07;;;;;;;35.20;16.75;;;;;;;17.01;74.33;101765.34;6245041;22;20030;-71
2022/10/13 07:06:32;;;;;;;30.50;14.93;;;;;;;17.12;73.93;101765.34;6241231;22;20008;-72
2022/10/13 07:08:58;;;;;;;26.55;14.45;;;;;;;17.21;73.69;101754.81;6246044;22;19999;-71
2022/10/13 07:11:24;;;;;;;31.15;15.57;;;;;;;17.15;74.06;101761.81;6235367;22;20106;-72
2022/10/13 07:13:49;;;;;;;31.98;15.52;;;;;;;17.10;74.06;101755.69;6248924;22;20039;-70
2022/10/13 07:16:15;;;;;;;27.65;14.73;;;;;;;16.93;74.37;101753.03;6246698;22;20004;-71
2022/10/13 07:18:41;;;;;;;28.83;15.65;;;;;;;17.09;74.15;101746.91;6241106;22;20093;-72
2022/10/13 07:21:06;;;;;;;29.67;14.75;;;;;;;17.21;73.82;101746.91;6246442;22;20014;-71
2022/10/13 07:23:32;;;;;;;24.52;13.88;;;;;;;17.34;73.68;101742.50;6235492;22;20007;-71
2022/10/13 07:25:58;;;;;;;29.23;15.00;;;;;;;17.31;73.45;101743.41;6246120;22;20102;-71
2022/10/13 07:28:25;;;;;;;25.38;13.70;;;;;;;17.36;73.59;101746.91;6246855;22;20418;-72
2022/10/13 07:30:51;;;;;;;25.20;13.48;;;;;;;17.32;73.63;101750.41;6243767;22;20014;-70
2022/10/13 07:33:18;;;;;;;24.38;13.77;;;;;;;17.09;73.82;101751.28;6248994;22;20011;-70
2022/10/13 07:35:43;;;;;;;27.10;14.70;;;;;;;17.34;73.50;101746.03;6211104;22;20045;-70
2022/10/13 07:38:09;;;;;;;27.88;14.38;;;;;;;17.34;73.75;101751.28;6247648;22;20007;-71
2022/10/13 07:40:34;;;;;;;21.40;12.75;;;;;;;17.49;73.61;101746.91;6244013;22;20008;-71
2022/10/13 07:43:00;;;;;;;20.70;12.20;;;;;;;17.69;73.49;101753.91;6243643;22;20440;-71
2022/10/13 07:45:26;;;;;;;23.00;12.52;;;;;;;17.60;73.55;101747.75;6242488;22;20003;-72
2022/10/13 07:47:51;;;;;;;23.30;12.63;;;;;;;17.68;73.26;101752.19;6240988;22;20015;-71
2022/10/13 07:50:17;;;;;;;21.02;12.05;;;;;;;17.71;73.24;101746.00;6240468;22;20008;-71
2022/10/13 07:52:42;;;;;;;20.60;11.15;;;;;;;17.72;72.88;101747.78;6246520;22;20008;-71
2022/10/13 07:55:08;;;;;;;21.90;11.02;;;;;;;17.82;72.69;101752.13;6245084;22;20489;-72
2022/10/13 07:57:33;;;;;;;18.27;10.18;;;;;;;17.87;72.29;101760.06;6239474;22;20335;-71
2022/10/13 07:59:59;;;;;;;17.60;10.43;;;;;;;17.79;72.38;101747.75;6245430;22;20015;-71
2022/10/13 08:02:25;;;;;;;17.67;9.82;;;;;;;17.83;72.36;101751.25;6241624;22;20018;-71
2022/10/13 08:04:50;;;;;;;16.70;10.35;;;;;;;17.79;72.21;101754.78;6246323;22;20495;-70
2022/10/13 08:07:16;;;;;;;17.27;9.95;;;;;;;17.68;72.90;101754.81;6246606;22;20003;-72
2022/10/13 08:09:42;;;;;;;17.05;10.10;;;;;;;17.64;72.49;101757.44;6237497;22;20014;-71
2022/10/13 08:12:08;;;;;;;14.65;9.65;;;;;;;17.87;71.67;101753.00;6248560;22;20007;-71
2022/10/13 08:14:33;;;;;;;17.05;10.02;;;;;;;17.95;71.49;101750.34;6243642;22;20015;-70
2022/10/13 08:17:00;;;;;;;15.68;9.32;;;;;;;17.88;71.80;101749.47;6246414;22;20011;-71
2022/10/13 08:19:27;;;;;;;15.20;9.23;;;;;;;17.72;71.50;101753.94;6235938;22;20422;-73
2022/10/13 08:21:53;;;;;;;15.18;8.73;;;;;;;17.89;71.62;101753.00;6246447;22;20362;-71
2022/10/13 08:24:21;;;;;;;14.70;8.77;;;;;;;17.83;71.80;101754.78;6245200;22;20195;-72
2022/10/13 08:26:47;;;;;;;15.18;9.02;;;;;;;17.89;71.76;101766.19;6215030;22;20030;-71
2022/10/13 08:29:13;;;;;;;17.10;8.38;;;;;;;17.96;71.79;101752.97;6217592;22;20007;-74
2022/10/13 08:31:38;;;;;;;18.38;8.70;;;;;;;17.82;71.71;101749.50;6238386;22;20332;-72
2022/10/13 08:34:03;;;;;;;21.25;10.02;;;;;;;18.04;71.64;101752.97;6247853;22;20019;-70
2022/10/13 08:36:29;;;;;;;22.73;10.48;;;;;;;18.20;71.55;101737.06;6218418;22;20096;-72
2022/10/13 08:38:54;;;;;;;17.58;9.80;;;;;;;18.40;71.14;101736.97;6214111;22;20087;-72
2022/10/13 08:41:24;;;;;;;17.33;10.25;;;;;;;18.31;71.24;101737.00;6242184;22;20039;-71
2022/10/13 08:43:54;;;;;;;16.38;10.02;;;;;;;18.43;70.92;101736.94;6238866;22;20016;-71
2022/10/13 08:46:38;;;;;;;14.68;9.90;;;;;;;18.39;70.60;101740.50;6246730;22;20026;-72
2022/10/13 08:49:05;;;;;;;18.48;10.40;;;;;;;18.39;69.94;101736.97;6246645;22;20058;-72
2022/10/13 08:51:31;;;;;;;16.25;9.90;;;;;;;18.27;70.19;101727.34;6237946;22;20003;-72
2022/10/13 08:53:57;;;;;;;17.67;10.50;;;;;;;18.12;70.80;101735.31;6244841;22;20225;-71
2022/10/13 08:56:32;;;;;;;17.63;10.48;;;;;;;18.35;70.48;101746.69;6240801;22;20549;-72
2022/10/13 08:58:57;;;;;;;16.90;10.82;;;;;;;18.05;70.85;101755.56;6217470;22;20036;-71
2022/10/13 09:01:34;;;;;;;15.57;10.75;;;;;;;18.19;71.31;101755.53;6236112;22;20014;-71
2022/10/13 09:04:24;;;;;;;16.55;10.50;;;;;;;18.29;70.99;101754.63;6243572;22;20683;-72
2022/10/13 09:07:25;;;;;;;17.48;11.15;;;;;;;18.29;70.93;101751.13;6219134;22;20094;-72
2022/10/13 09:09:52;;;;;;;15.30;9.55;;;;;;;18.50;71.05;101749.22;6169384;22;20385;-72
2022/10/13 09:12:22;;;;;;;16.92;10.40;;;;;;;18.52;70.88;101743.94;6246396;22;20012;-70
2022/10/13 09:15:06;;;;;;;16.70;10.82;;;;;;;18.12;71.16;101744.13;6242066;22;20403;-71
2022/10/13 09:17:33;;;;;;;16.58;11.20;;;;;;;18.60;70.82;101740.41;6241779;22;20004;-72
2022/10/13 09:20:24;;;;;;;22.75;11.65;;;;;;;18.55;70.25;101747.47;6242968;22;20007;-71
2022/10/13 09:23:24;;;;;;;17.00;11.25;;;;;;;18.75;70.22;101741.19;6248367;22;20090;-71
2022/10/13 09:25:51;;;;;;;19.05;11.45;;;;;;;18.66;69.74;101749.19;6240295;22;20025;-71
2022/10/13 09:28:27;;;;;;;16.52;10.25;;;;;;;18.73;69.67;101743.84;6248919;22;20008;-72
2022/10/13 09:31:23;;;;;;;18.85;11.48;;;;;;;18.67;69.69;101751.81;6244282;22;20000;-72
2022/10/13 09:34:10;;;;;;;17.55;10.95;;;;;;;18.18;70.85;101745.84;6226002;22;20007;-71
2022/10/13 09:36:36;;;;;;;17.63;10.73;;;;;;;18.49;70.25;101743.94;6248069;22;20522;-71
2022/10/13 09:39:13;;;;;;;18.25;11.45;;;;;;;18.50;70.27;101729.88;6240871;22;20014;-72
2022/10/13 09:41:41;;;;;;;20.13;11.30;;;;;;;18.46;70.49;101739.59;6241864;22;20007;-72
2022/10/13 09:44:14;;;;;;;20.23;11.25;;;;;;;18.68;69.81;101727.16;6242690;22;20137;-74
2022/10/13 09:46:52;;;;;;;18.30;12.13;;;;;;;18.60;70.30;101736.91;6248341;22;20515;-72
2022/10/13 09:49:38;;;;;;;18.75;11.93;;;;;;;18.49;70.42;101733.38;6245505;22;20015;-72
2022/10/13 09:52:13;;;;;;;18.83;11.80;;;;;;;18.73;70.57;101725.34;6211419;22;20473;-72
2022/10/13 09:54:38;;;;;;;19.40;12.05;;;;;;;18.82;69.87;101727.94;6246572;22;20008;-72
2022/10/13 09:57:24;;;;;;;21.25;12.13;;;;;;;19.16;69.73;101725.03;6242327;22;20014;-72
2022/10/13 10:00:03;;;;;;;17.65;11.40;;;;;;;19.24;68.03;101731.13;6244709;22;20015;-72
2022/10/13 10:02:34;;;;;;;18.90;12.45;;;;;;;19.29;67.65;101740.78;6243688;22;20016;-72
2022/10/13 10:05:05;;;;;;;21.40;11.98;;;;;;;19.20;68.05;101732.06;6220717;22;20054;-71
2022/10/13 10:07:32;;;;;;;21.90;12.85;;;;;;;19.26;67.93;101735.53;6213733;22;20348;-72
2022/10/13 10:10:04;;;;;;;20.77;13.15;;;;;;;19.22;67.72;101733.78;6244639;22;20007;-72
2022/10/13 10:12:35;;;;;;;20.67;13.15;;;;;;;19.42;67.83;101729.22;6244993;22;20494;-72
2022/10/13 10:15:01;;;;;;;20.42;13.10;;;;;;;19.64;67.54;101726.41;6214196;22;20011;-72
2022/10/13 10:17:40;;;;;;;19.80;13.68;;;;;;;19.33;67.46;101724.00;6244982;22;20359;-71
2022/10/13 10:20:23;;;;;;;18.52;13.02;;;;;;;19.28;67.38;101720.50;6243118;22;20347;-71
2022/10/13 10:22:57;;;;;;;20.48;13.80;;;;;;;19.42;67.40;101723.91;6248539;22;20031;-72
2022/10/13 10:25:43;;;;;;;21.10;14.00;;;;;;;19.60;67.34;101712.31;6240211;22;20018;-72
2022/10/13 10:28:30;;;;;;;20.48;13.13;;;;;;;19.58;67.17;101716.72;6246314;22;20703;-71
2022/10/13 10:30:59;;;;;;;23.63;13.93;;;;;;;19.36;67.35;101716.03;6248534;22;20003;-72
2022/10/13 10:33:56;;;;;;;21.00;13.68;;;;;;;19.68;65.91;101715.75;6239656;22;20062;-72
2022/10/13 10:36:32;;;;;;;19.40;12.40;;;;;;;19.73;66.08;101708.66;6232085;22;20061;-72
2022/10/13 10:39:11;;;;;;;21.02;13.95;;;;;;;19.55;65.87;101711.50;6239836;22;20568;-71
2022/10/13 10:41:53;;;;;;;23.17;14.95;;;;;;;19.54;66.49;101709.72;6245577;22;20285;-71
2022/10/13 10:44:28;;;;;;;25.95;15.32;;;;;;;19.06;67.59;101705.75;6242455;22;20331;-72
2022/10/13 10:46:59;;;;;;;23.92;15.35;;;;;;;18.92;68.37;101702.31;6249219;22;20000;-71
2022/10/13 10:49:34;;;;;;;24.58;15.93;;;;;;;18.83;68.49;101697.13;6236575;22;20008;-72
2022/10/13 10:52:07;;;;;;;25.00;16.17;;;;;;;18.98;68.66;101700.50;6245863;22;20328;-71
2022/10/13 10:54:54;;;;;;;27.25;15.20;;;;;;;19.16;68.33;101698.59;6245215;22;20084;-72
2022/10/13 10:58:18;;;;;;;23.08;14.55;;;;;;;19.22;68.00;101696.78;6212840;22;20011;-71
2022/10/13 11:00:52;;;;;;;24.02;14.95;;;;;;;19.04;68.14;101696.94;6162469;22;20609;-71
2022/10/13 11:03:24;;;;;;;24.08;15.27;;;;;;;18.92;68.50;101695.28;6244105;22;20015;-71
2022/10/13 11:05:56;;;;;;;26.40;15.73;;;;;;;18.80;69.37;101695.38;6246741;22;20014;-71
2022/10/13 11:08:41;;;;;;;22.25;14.40;;;;;;;18.89;68.20;101684.75;6242593;22;20371;-71
2022/10/13 11:11:19;;;;;;;23.48;14.65;;;;;;;18.80;68.08;101686.56;6242472;22;20074;-70
2022/10/13 11:13:51;;;;;;;29.05;15.77;;;;;;;18.26;70.58;101688.66;6240080;22;20019;-70
2022/10/13 11:16:37;;;;;;;23.90;15.40;;;;;;;18.27;71.14;101686.88;6249965;22;20008;-70
2022/10/13 11:19:23;;;;;;;24.42;14.57;;;;;;;18.53;70.14;101682.34;6243206;22;20014;-71
2022/10/13 11:21:58;;;;;;;28.70;15.70;;;;;;;18.38;71.28;101683.28;6245390;22;20003;-71